Time,TemperatureF,DewpointF,PressureIn,WindDirection,WindDirectionDegrees,WindSpeedMPH,WindSpeedGustMPH,Humidity,HourlyPrecipIn,Conditions,Clouds,dailyrainin,SoftwareType,DateUTC
2013-12-06 00:00:00,20.8,12.9,30.35,NNW,339,5.0,5.0,71,0.00,,,0.00,Wunderground v.1.15,2013-12-06 06:00:00,
2013-12-06 00:06:00,20.7,12.8,30.35,NNW,333,4.0,9.0,71,0.00,,,0.00,Wunderground v.1.15,2013-12-06 06:06:00,
2013-12-06 00:12:00,20.7,12.8,30.36,NNW,338,4.0,9.0,71,0.00,,,0.00,Wunderground v.1.15,2013-12-06 06:12:00,
2013-12-06 00:18:00,20.7,12.8,30.36,NNW,333,4.0,9.0,71,0.00,,,0.00,Wunderground v.1.15,2013-12-06 06:18:00,
2013-12-06 00:24:00,20.7,12.8,30.35,NNW,344,4.0,9.0,71,0.00,,,0.00,Wunderground v.1.15,2013-12-06 06:24:00,
2013-12-06 00:30:00,20.6,12.7,30.34,NNW,345,4.0,4.0,71,0.00,,,0.00,Wunderground v.1.15,2013-12-06 06:30:00,
2013-12-06 00:36:00,20.5,12.6,30.35,NNW,346,4.0,9.0,71,0.00,,,0.00,Wunderground v.1.15,2013-12-06 06:36:00,
2013-12-06 00:42:00,20.4,12.5,30.35,NNW,341,4.0,9.0,71,0.00,,,0.00,Wunderground v.1.15,2013-12-06 06:42:00,
2013-12-06 00:48:00,20.4,12.5,30.35,NNE,17,4.0,9.0,71,0.00,,,0.00,Wunderground v.1.15,2013-12-06 06:48:00,
2013-12-06 00:54:00,20.4,12.5,30.36,NW,306,4.0,9.0,71,0.00,,,0.00,Wunderground v.1.15,2013-12-06 06:54:00,
2013-12-06 01:00:00,20.3,12.4,30.37,NNW,334,5.0,7.0,71,0.00,,,0.00,Wunderground v.1.15,2013-12-06 07:00:00,
2013-12-06 01:06:00,20.2,12.3,30.36,NNW,338,5.0,8.0,71,0.00,,,0.00,Wunderground v.1.15,2013-12-06 07:06:00,
2013-12-06 01:12:00,20.2,12.3,30.36,NNW,342,5.0,10.0,71,0.00,,,0.00,Wunderground v.1.15,2013-12-06 07:12:00,
2013-12-06 01:18:00,20.1,12.2,30.37,NNW,348,3.0,10.0,71,0.00,,,0.00,Wunderground v.1.15,2013-12-06 07:18:00,
2013-12-06 01:24:00,20.0,12.1,30.38,NNW,347,3.0,5.0,71,0.00,,,0.00,Wunderground v.1.15,2013-12-06 07:24:00,
2013-12-06 01:30:00,19.9,12.0,30.35,NNW,337,4.0,4.0,71,0.00,,,0.00,Wunderground v.1.15,2013-12-06 07:30:00,
2013-12-06 01:35:00,19.9,12.0,30.35,NNW,348,4.0,6.0,71,0.00,,,0.00,Wunderground v.1.15,2013-12-06 07:35:00,
2013-12-06 01:42:00,19.8,11.9,30.35,NNE,22,5.0,12.0,71,0.00,,,0.00,Wunderground v.1.15,2013-12-06 07:42:00,
2013-12-06 01:48:00,19.7,11.8,30.37,North,355,4.0,12.0,71,0.00,,,0.00,Wunderground v.1.15,2013-12-06 07:48:00,
2013-12-06 01:54:00,19.7,11.8,30.37,North,9,4.0,6.0,71,0.00,,,0.00,Wunderground v.1.15,2013-12-06 07:54:00,
2013-12-06 02:00:00,19.6,11.7,30.37,North,351,5.0,15.0,71,0.00,,,0.00,Wunderground v.1.15,2013-12-06 08:00:00,
2013-12-06 02:06:00,19.5,11.6,30.37,NW,322,6.0,15.0,71,0.00,,,0.00,Wunderground v.1.15,2013-12-06 08:06:00,
2013-12-06 02:12:00,19.4,11.5,30.38,North,355,5.0,15.0,71,0.00,,,0.00,Wunderground v.1.15,2013-12-06 08:12:00,
2013-12-06 02:18:00,19.4,11.5,30.38,North,355,5.0,15.0,71,0.00,,,0.00,Wunderground v.1.15,2013-12-06 08:18:00,
2013-12-06 02:24:00,19.3,11.4,30.38,NNW,348,6.0,15.0,71,0.00,,,0.00,Wunderground v.1.15,2013-12-06 08:24:00,
2013-12-06 02:29:00,19.1,11.2,30.37,North,355,6.0,15.0,71,0.00,,,0.00,Wunderground v.1.15,2013-12-06 08:29:00,
2013-12-06 02:36:00,19.0,11.1,30.37,NNW,342,5.0,15.0,71,0.00,,,0.00,Wunderground v.1.15,2013-12-06 08:36:00,
2013-12-06 02:42:00,19.0,11.1,30.38,NNW,341,4.0,15.0,71,0.00,,,0.00,Wunderground v.1.15,2013-12-06 08:42:00,
2013-12-06 02:48:00,18.9,11.0,30.38,North,355,5.0,15.0,71,0.00,,,0.00,Wunderground v.1.15,2013-12-06 08:48:00,
2013-12-06 02:53:00,18.8,10.9,30.38,NNW,342,5.0,15.0,71,0.00,,,0.00,Wunderground v.1.15,2013-12-06 08:53:00,
2013-12-06 03:00:00,18.8,10.9,30.38,North,360,4.0,4.0,71,0.00,,,0.00,Wunderground v.1.15,2013-12-06 09:00:00,
2013-12-06 03:05:00,18.8,10.9,30.39,NNE,26,4.0,15.0,71,0.00,,,0.00,Wunderground v.1.15,2013-12-06 09:05:00,
2013-12-06 03:11:00,18.8,10.9,30.39,NNW,344,5.0,5.0,71,0.00,,,0.00,Wunderground v.1.15,2013-12-06 09:11:00,
2013-12-06 03:18:00,18.7,10.9,30.39,North,350,3.0,15.0,71,0.00,,,0.00,Wunderground v.1.15,2013-12-06 09:18:00,
2013-12-06 03:24:00,18.7,10.9,30.39,NNW,345,2.0,15.0,71,0.00,,,0.00,Wunderground v.1.15,2013-12-06 09:24:00,
2013-12-06 03:30:00,18.7,10.9,30.39,NNW,331,3.0,15.0,71,0.00,,,0.00,Wunderground v.1.15,2013-12-06 09:30:00,
2013-12-06 03:36:00,18.6,10.8,30.39,NNW,337,5.0,15.0,71,0.00,,,0.00,Wunderground v.1.15,2013-12-06 09:36:00,
2013-12-06 03:41:00,18.4,10.6,30.38,NNW,346,6.0,15.0,71,0.00,,,0.00,Wunderground v.1.15,2013-12-06 09:41:00,
2013-12-06 03:48:00,18.2,10.4,30.36,North,9,6.0,15.0,71,0.00,,,0.00,Wunderground v.1.15,2013-12-06 09:48:00,
2013-12-06 03:54:00,18.0,10.2,30.36,NNE,19,5.0,15.0,71,0.00,,,0.00,Wunderground v.1.15,2013-12-06 09:54:00,
2013-12-06 04:00:00,17.9,10.1,30.37,NNE,13,6.0,6.0,71,0.00,,,0.00,Wunderground v.1.15,2013-12-06 10:00:00,
2013-12-06 04:06:00,17.8,10.0,30.37,NNW,345,5.0,6.0,71,0.00,,,0.00,Wunderground v.1.15,2013-12-06 10:06:00,
2013-12-06 04:12:00,17.8,10.0,30.38,NNW,329,4.0,6.0,71,0.00,,,0.00,Wunderground v.1.15,2013-12-06 10:12:00,
2013-12-06 04:18:00,17.8,10.0,30.39,North,350,5.0,9.0,71,0.00,,,0.00,Wunderground v.1.15,2013-12-06 10:18:00,
2013-12-06 04:24:00,17.7,9.9,30.39,NNE,16,5.0,6.0,71,0.00,,,0.00,Wunderground v.1.15,2013-12-06 10:24:00,
2013-12-06 04:30:00,17.8,10.0,30.39,North,360,4.0,4.0,71,0.00,,,0.00,Wunderground v.1.15,2013-12-06 10:30:00,
2013-12-06 04:36:00,17.8,10.0,30.39,NNW,336,5.0,5.0,71,0.00,,,0.00,Wunderground v.1.15,2013-12-06 10:36:00,
2013-12-06 04:42:00,17.7,9.9,30.39,NNW,338,5.0,5.0,71,0.00,,,0.00,Wunderground v.1.15,2013-12-06 10:42:00,
2013-12-06 04:48:00,17.7,9.9,30.39,North,360,5.0,10.0,71,0.00,,,0.00,Wunderground v.1.15,2013-12-06 10:48:00,
2013-12-06 04:54:00,17.8,10.0,30.39,NNW,348,5.0,7.0,71,0.00,,,0.00,Wunderground v.1.15,2013-12-06 10:54:00,
2013-12-06 05:00:00,17.8,10.0,30.39,NNW,341,4.0,12.0,71,0.00,,,0.00,Wunderground v.1.15,2013-12-06 11:00:00,
2013-12-06 05:06:00,17.9,10.1,30.39,NNW,338,4.0,12.0,71,0.00,,,0.00,Wunderground v.1.15,2013-12-06 11:06:00,
2013-12-06 05:12:00,17.9,10.1,30.40,NNW,336,4.0,12.0,71,0.00,,,0.00,Wunderground v.1.15,2013-12-06 11:12:00,
2013-12-06 05:18:00,17.9,10.1,30.39,NNW,340,4.0,12.0,71,0.00,,,0.00,Wunderground v.1.15,2013-12-06 11:18:00,
2013-12-06 05:24:00,17.8,10.0,30.39,NNW,340,5.0,12.0,71,0.00,,,0.00,Wunderground v.1.15,2013-12-06 11:24:00,
2013-12-06 05:30:00,17.7,9.9,30.39,NNW,341,6.0,12.0,71,0.00,,,0.00,Wunderground v.1.15,2013-12-06 11:30:00,
2013-12-06 05:36:00,17.6,9.8,30.39,NNW,341,5.0,12.0,71,0.00,,,0.00,Wunderground v.1.15,2013-12-06 11:36:00,
2013-12-06 05:42:00,17.5,9.7,30.38,North,360,5.0,12.0,71,0.00,,,0.00,Wunderground v.1.15,2013-12-06 11:42:00,
2013-12-06 05:48:00,17.5,9.7,30.38,North,350,4.0,12.0,71,0.00,,,0.00,Wunderground v.1.15,2013-12-06 11:48:00,
2013-12-06 05:54:00,17.5,9.7,30.38,North,360,4.0,12.0,71,0.00,,,0.00,Wunderground v.1.15,2013-12-06 11:54:00,
2013-12-06 06:00:00,17.5,9.7,30.39,NNW,342,4.0,7.0,71,0.00,,,0.00,Wunderground v.1.15,2013-12-06 12:00:00,
2013-12-06 06:06:00,17.4,9.6,30.39,NNE,18,4.0,7.0,71,0.00,,,0.00,Wunderground v.1.15,2013-12-06 12:06:00,
2013-12-06 06:12:00,17.4,9.6,30.39,NNE,15,4.0,4.0,71,0.00,,,0.00,Wunderground v.1.15,2013-12-06 12:12:00,
2013-12-06 06:18:00,17.4,9.6,30.40,North,5,4.0,7.0,71,0.00,,,0.00,Wunderground v.1.15,2013-12-06 12:18:00,
2013-12-06 06:24:00,17.3,9.5,30.40,North,5,6.0,16.0,71,0.00,,,0.00,Wunderground v.1.15,2013-12-06 12:24:00,
2013-12-06 06:30:00,17.2,9.4,30.41,North,9,7.0,7.0,71,0.00,,,0.00,Wunderground v.1.15,2013-12-06 12:30:00,
2013-12-06 06:36:00,17.1,9.3,30.42,NNW,344,6.0,8.0,71,0.00,,,0.00,Wunderground v.1.15,2013-12-06 12:36:00,
2013-12-06 06:42:00,17.1,9.3,30.40,North,11,5.0,6.0,71,0.00,,,0.00,Wunderground v.1.15,2013-12-06 12:42:00,
2013-12-06 06:48:00,17.0,9.2,30.41,North,9,5.0,6.0,71,0.00,,,0.00,Wunderground v.1.15,2013-12-06 12:48:00,
2013-12-06 06:54:00,16.9,9.1,30.41,NNE,18,6.0,6.0,71,0.00,,,0.00,Wunderground v.1.15,2013-12-06 12:54:00,
2013-12-06 07:00:00,16.8,9.0,30.41,North,355,6.0,6.0,71,0.00,,,0.00,Wunderground v.1.15,2013-12-06 13:00:00,
2013-12-06 07:06:00,16.7,8.9,30.40,NNE,18,5.0,9.0,71,0.00,,,0.00,Wunderground v.1.15,2013-12-06 13:06:00,
2013-12-06 07:12:00,16.5,8.7,30.41,NNW,345,5.0,7.0,71,0.00,,,0.00,Wunderground v.1.15,2013-12-06 13:12:00,
2013-12-06 07:18:00,16.4,8.6,30.41,NNW,331,5.0,13.0,71,0.00,,,0.00,Wunderground v.1.15,2013-12-06 13:18:00,
2013-12-06 07:24:00,16.2,8.4,30.42,NNE,17,5.0,9.0,71,0.00,,,0.00,Wunderground v.1.15,2013-12-06 13:24:00,
2013-12-06 07:30:00,16.1,8.3,30.43,NNW,344,5.0,9.0,71,0.00,,,0.00,Wunderground v.1.15,2013-12-06 13:30:00,
2013-12-06 07:36:00,16.1,8.3,30.43,NNE,19,5.0,9.0,71,0.00,,,0.00,Wunderground v.1.15,2013-12-06 13:36:00,
2013-12-06 07:42:00,16.1,8.3,30.43,NNE,19,6.0,9.0,71,0.00,,,0.00,Wunderground v.1.15,2013-12-06 13:42:00,
2013-12-06 07:48:00,16.0,8.3,30.43,North,5,7.0,11.0,71,0.00,,,0.00,Wunderground v.1.15,2013-12-06 13:48:00,
2013-12-06 07:54:00,15.9,8.2,30.44,North,360,6.0,9.0,71,0.00,,,0.00,Wunderground v.1.15,2013-12-06 13:54:00,
2013-12-06 08:01:00,15.8,8.1,30.44,North,350,5.0,6.0,71,0.00,,,0.00,Wunderground v.1.15,2013-12-06 14:01:00,
2013-12-06 08:08:00,15.7,8.0,30.46,North,360,5.0,10.0,71,0.00,,,0.00,Wunderground v.1.15,2013-12-06 14:08:00,
2013-12-06 08:14:00,15.7,8.0,30.46,NNW,333,5.0,12.0,71,0.00,,,0.00,Wunderground v.1.15,2013-12-06 14:14:00,
2013-12-06 08:20:00,15.6,7.9,30.45,NNW,336,5.0,11.0,71,0.00,,,0.00,Wunderground v.1.15,2013-12-06 14:20:00,
2013-12-06 08:26:00,15.5,7.8,30.45,NNE,21,5.0,11.0,71,0.00,,,0.00,Wunderground v.1.15,2013-12-06 14:26:00,
2013-12-06 08:32:00,15.5,7.8,30.45,North,355,5.0,6.0,71,0.00,,,0.00,Wunderground v.1.15,2013-12-06 14:32:00,
2013-12-06 08:38:00,15.5,7.8,30.46,NNW,327,5.0,6.0,71,0.00,,,0.00,Wunderground v.1.15,2013-12-06 14:38:00,
2013-12-06 08:44:00,15.4,7.7,30.47,NNW,333,6.0,7.0,71,0.00,,,0.00,Wunderground v.1.15,2013-12-06 14:44:00,
2013-12-06 08:50:00,15.3,7.6,30.48,NNW,346,6.0,6.0,71,0.00,,,0.00,Wunderground v.1.15,2013-12-06 14:50:00,
2013-12-06 08:55:00,15.3,7.6,30.46,NNW,346,5.0,14.0,71,0.00,,,0.00,Wunderground v.1.15,2013-12-06 14:55:00,
2013-12-06 09:02:00,15.3,7.6,30.45,North,355,6.0,14.0,71,0.00,,,0.00,Wunderground v.1.15,2013-12-06 15:02:00,
2013-12-06 09:08:00,15.2,7.5,30.45,NNE,30,7.0,14.0,71,0.00,,,0.00,Wunderground v.1.15,2013-12-06 15:08:00,
2013-12-06 09:14:00,15.2,7.2,30.46,NNW,342,5.0,14.0,70,0.00,,,0.00,Wunderground v.1.15,2013-12-06 15:14:00,
2013-12-06 09:20:00,15.2,7.5,30.46,NNE,12,4.0,14.0,71,0.00,,,0.00,Wunderground v.1.15,2013-12-06 15:20:00,
2013-12-06 09:25:00,15.2,7.5,30.47,NNE,15,5.0,14.0,71,0.00,,,0.00,Wunderground v.1.15,2013-12-06 15:25:00,
2013-12-06 09:31:00,15.2,7.5,30.46,North,355,4.0,14.0,71,0.00,,,0.00,Wunderground v.1.15,2013-12-06 15:31:00,
2013-12-06 09:38:00,15.1,7.1,30.47,NNE,30,5.0,14.0,70,0.00,,,0.00,Wunderground v.1.15,2013-12-06 15:38:00,
2013-12-06 09:44:00,15.1,7.1,30.45,NNE,30,7.0,14.0,70,0.00,,,0.00,Wunderground v.1.15,2013-12-06 15:44:00,
2013-12-06 09:49:00,15.1,7.4,30.47,NNE,24,6.0,6.0,71,0.00,,,0.00,Wunderground v.1.15,2013-12-06 15:49:00,
2013-12-06 09:55:00,15.2,7.2,30.47,North,10,5.0,14.0,70,0.00,,,0.00,Wunderground v.1.15,2013-12-06 15:55:00,
2013-12-06 10:02:00,15.1,7.1,30.47,NNW,336,5.0,7.0,70,0.00,,,0.00,Wunderground v.1.15,2013-12-06 16:02:00,
2013-12-06 10:08:00,15.1,7.1,30.48,NNE,20,5.0,7.0,70,0.00,,,0.00,Wunderground v.1.15,2013-12-06 16:08:00,
2013-12-06 10:13:00,15.1,7.4,30.48,NNE,12,5.0,5.0,71,0.00,,,0.00,Wunderground v.1.15,2013-12-06 16:13:00,
2013-12-06 10:20:00,15.1,7.1,30.47,NNW,348,4.0,4.0,70,0.00,,,0.00,Wunderground v.1.15,2013-12-06 16:20:00,
2013-12-06 10:26:00,15.1,7.1,30.48,NNW,340,4.0,5.0,70,0.00,,,0.00,Wunderground v.1.15,2013-12-06 16:26:00,
2013-12-06 10:32:00,15.1,7.1,30.49,North,5,4.0,5.0,70,0.00,,,0.00,Wunderground v.1.15,2013-12-06 16:32:00,
2013-12-06 10:38:00,15.2,7.2,30.47,North,360,3.0,9.0,70,0.00,,,0.00,Wunderground v.1.15,2013-12-06 16:38:00,
2013-12-06 10:43:00,15.3,7.3,30.47,NNW,332,5.0,6.0,70,0.00,,,0.00,Wunderground v.1.15,2013-12-06 16:43:00,
2013-12-06 10:50:00,15.3,7.3,30.47,North,355,5.0,6.0,70,0.00,,,0.00,Wunderground v.1.15,2013-12-06 16:50:00,
2013-12-06 10:56:00,15.4,7.4,30.47,NNE,16,4.0,12.0,70,0.00,,,0.00,Wunderground v.1.15,2013-12-06 16:56:00,
2013-12-06 11:02:00,15.3,7.3,30.47,NNE,24,6.0,12.0,70,0.00,,,0.00,Wunderground v.1.15,2013-12-06 17:02:00,
2013-12-06 11:08:00,15.2,7.2,30.50,NNE,27,6.0,12.0,70,0.00,,,0.00,Wunderground v.1.15,2013-12-06 17:08:00,
2013-12-06 11:13:00,15.1,7.1,30.48,NNE,23,4.0,12.0,70,0.00,,,0.00,Wunderground v.1.15,2013-12-06 17:13:00,
2013-12-06 11:19:00,15.2,7.2,30.47,North,360,4.0,12.0,70,0.00,,,0.00,Wunderground v.1.15,2013-12-06 17:19:00,
2013-12-06 11:26:00,15.2,7.2,30.47,North,5,5.0,12.0,70,0.00,,,0.00,Wunderground v.1.15,2013-12-06 17:26:00,
2013-12-06 11:31:00,15.2,7.2,30.48,North,5,4.0,12.0,70,0.00,,,0.00,Wunderground v.1.15,2013-12-06 17:31:00,
2013-12-06 11:38:00,15.1,7.1,30.47,NNE,21,5.0,12.0,70,0.00,,,0.00,Wunderground v.1.15,2013-12-06 17:38:00,
2013-12-06 11:43:00,15.1,7.1,30.48,NNW,345,4.0,12.0,70,0.00,,,0.00,Wunderground v.1.15,2013-12-06 17:43:00,
2013-12-06 11:49:00,15.2,7.2,30.48,NNW,333,4.0,12.0,70,0.00,,,0.00,Wunderground v.1.15,2013-12-06 17:49:00,
2013-12-06 11:56:00,15.2,7.2,30.48,NNW,346,3.0,12.0,70,0.00,,,0.00,Wunderground v.1.15,2013-12-06 17:56:00,
2013-12-06 12:02:00,15.3,7.3,30.50,NNW,348,3.0,3.0,70,0.00,,,0.00,Wunderground v.1.15,2013-12-06 18:02:00,
2013-12-06 12:08:00,15.3,7.3,30.50,NNW,337,4.0,10.0,70,0.00,,,0.00,Wunderground v.1.15,2013-12-06 18:08:00,
2013-12-06 12:14:00,15.2,7.2,30.48,NW,325,5.0,6.0,70,0.00,,,0.00,Wunderground v.1.15,2013-12-06 18:14:00,
2013-12-06 12:20:00,15.2,7.2,30.48,NNW,342,4.0,4.0,70,0.00,,,0.00,Wunderground v.1.15,2013-12-06 18:20:00,
2013-12-06 12:25:00,15.3,7.3,30.47,NNW,340,3.0,8.0,70,0.00,,,0.00,Wunderground v.1.15,2013-12-06 18:25:00,
2013-12-06 12:32:00,15.5,7.5,30.47,North,350,4.0,10.0,70,0.00,,,0.00,Wunderground v.1.15,2013-12-06 18:32:00,
2013-12-06 12:38:00,15.6,7.6,30.47,North,355,5.0,10.0,70,0.00,,,0.00,Wunderground v.1.15,2013-12-06 18:38:00,
2013-12-06 12:44:00,15.6,7.2,30.47,NW,306,5.0,9.0,69,0.00,,,0.00,Wunderground v.1.15,2013-12-06 18:44:00,
2013-12-06 12:49:00,15.5,7.1,30.47,North,11,6.0,6.0,69,0.00,,,0.00,Wunderground v.1.15,2013-12-06 18:49:00,
2013-12-06 12:56:00,15.5,7.1,30.48,North,5,5.0,7.0,69,0.00,,,0.00,Wunderground v.1.15,2013-12-06 18:56:00,
2013-12-06 13:02:00,15.5,7.1,30.46,NNW,346,5.0,9.0,69,0.00,,,0.00,Wunderground v.1.15,2013-12-06 19:02:00,
2013-12-06 13:08:00,15.7,7.3,30.48,NNW,346,5.0,10.0,69,0.00,,,0.00,Wunderground v.1.15,2013-12-06 19:08:00,
2013-12-06 13:14:00,15.9,7.5,30.49,NNW,337,3.0,8.0,69,0.00,,,0.00,Wunderground v.1.15,2013-12-06 19:14:00,
2013-12-06 13:20:00,16.0,7.6,30.49,WNW,303,5.0,5.0,69,0.00,,,0.00,Wunderground v.1.15,2013-12-06 19:20:00,
2013-12-06 13:25:00,16.0,7.6,30.48,NNW,333,5.0,10.0,69,0.00,,,0.00,Wunderground v.1.15,2013-12-06 19:25:00,
2013-12-06 13:32:00,15.9,7.5,30.47,NNW,328,6.0,12.0,69,0.00,,,0.00,Wunderground v.1.15,2013-12-06 19:32:00,
2013-12-06 13:38:00,15.9,7.5,30.47,NNE,13,7.0,12.0,69,0.00,,,0.00,Wunderground v.1.15,2013-12-06 19:38:00,
2013-12-06 13:44:00,16.0,7.6,30.46,North,5,6.0,8.0,69,0.00,,,0.00,Wunderground v.1.15,2013-12-06 19:44:00,
2013-12-06 13:50:00,16.1,7.7,30.46,NNE,14,5.0,5.0,69,0.00,,,0.00,Wunderground v.1.15,2013-12-06 19:50:00,
2013-12-06 13:55:00,16.4,8.0,30.47,NW,322,5.0,10.0,69,0.00,,,0.00,Wunderground v.1.15,2013-12-06 19:55:00,
2013-12-06 14:01:00,16.6,8.2,30.47,North,360,4.0,7.0,69,0.00,,,0.00,Wunderground v.1.15,2013-12-06 20:01:00,
2013-12-06 14:08:00,16.9,8.5,30.47,NNW,344,4.0,7.0,69,0.00,,,0.00,Wunderground v.1.15,2013-12-06 20:08:00,
2013-12-06 14:13:00,17.1,8.7,30.46,NW,325,6.0,9.0,69,0.00,,,0.00,Wunderground v.1.15,2013-12-06 20:13:00,
2013-12-06 14:19:00,17.1,8.3,30.47,NNW,342,6.0,7.0,68,0.00,,,0.00,Wunderground v.1.15,2013-12-06 20:19:00,
2013-12-06 14:25:00,17.1,8.3,30.46,North,360,5.0,7.0,68,0.00,,,0.00,Wunderground v.1.15,2013-12-06 20:25:00,
2013-12-06 14:31:00,17.3,8.5,30.47,NNW,331,4.0,7.0,68,0.00,,,0.00,Wunderground v.1.15,2013-12-06 20:31:00,
2013-12-06 14:38:00,17.3,8.5,30.47,NNW,344,5.0,7.0,68,0.00,,,0.00,Wunderground v.1.15,2013-12-06 20:38:00,
2013-12-06 14:44:00,17.4,8.6,30.47,North,360,5.0,7.0,68,0.00,,,0.00,Wunderground v.1.15,2013-12-06 20:44:00,
2013-12-06 14:49:00,17.6,8.8,30.47,NW,325,4.0,7.0,68,0.00,,,0.00,Wunderground v.1.15,2013-12-06 20:49:00,
2013-12-06 14:55:00,17.7,8.9,30.47,North,355,5.0,7.0,68,0.00,,,0.00,Wunderground v.1.15,2013-12-06 20:55:00,
2013-12-06 15:02:00,17.7,8.9,30.48,NW,324,4.0,4.0,68,0.00,,,0.00,Wunderground v.1.15,2013-12-06 21:02:00,
2013-12-06 15:08:00,17.8,9.0,30.47,NNE,14,3.0,4.0,68,0.00,,,0.00,Wunderground v.1.15,2013-12-06 21:08:00,
2013-12-06 15:13:00,17.9,9.1,30.48,NW,325,4.0,7.0,68,0.00,,,0.00,Wunderground v.1.15,2013-12-06 21:13:00,
2013-12-06 15:20:00,17.8,8.7,30.48,NNW,336,5.0,5.0,67,0.00,,,0.00,Wunderground v.1.15,2013-12-06 21:20:00,
2013-12-06 15:26:00,17.7,8.6,30.48,NNW,338,5.0,5.0,67,0.00,,,0.00,Wunderground v.1.15,2013-12-06 21:26:00,
2013-12-06 15:32:00,17.7,8.6,30.49,NNW,338,5.0,8.0,67,0.00,,,0.00,Wunderground v.1.15,2013-12-06 21:32:00,
2013-12-06 15:38:00,17.7,8.6,30.49,NNW,334,5.0,8.0,67,0.00,,,0.00,Wunderground v.1.15,2013-12-06 21:38:00,
2013-12-06 15:43:00,17.7,8.6,30.49,NNE,21,4.0,7.0,67,0.00,,,0.00,Wunderground v.1.15,2013-12-06 21:43:00,
2013-12-06 15:49:00,17.7,8.6,30.49,NNW,345,5.0,5.0,67,0.00,,,0.00,Wunderground v.1.15,2013-12-06 21:49:00,
2013-12-06 15:56:00,17.7,8.6,30.50,NNW,334,4.0,9.0,67,0.00,,,0.00,Wunderground v.1.15,2013-12-06 21:56:00,
2013-12-06 16:02:00,17.7,8.6,30.49,NW,322,5.0,9.0,67,0.00,,,0.00,Wunderground v.1.15,2013-12-06 22:02:00,
2013-12-06 16:08:00,17.7,8.6,30.50,NW,323,3.0,9.0,67,0.00,,,0.00,Wunderground v.1.15,2013-12-06 22:08:00,
2013-12-06 16:13:00,17.7,8.6,30.50,North,10,3.0,9.0,67,0.00,,,0.00,Wunderground v.1.15,2013-12-06 22:13:00,
2013-12-06 16:20:00,17.7,8.6,30.50,NNW,338,4.0,4.0,67,0.00,,,0.00,Wunderground v.1.15,2013-12-06 22:20:00,
2013-12-06 16:26:00,17.7,8.6,30.50,North,11,4.0,9.0,67,0.00,,,0.00,Wunderground v.1.15,2013-12-06 22:26:00,
2013-12-06 16:31:00,17.7,8.6,30.51,North,350,4.0,10.0,67,0.00,,,0.00,Wunderground v.1.15,2013-12-06 22:31:00,
2013-12-06 16:38:00,17.7,8.6,30.51,NNW,329,5.0,11.0,67,0.00,,,0.00,Wunderground v.1.15,2013-12-06 22:38:00,
2013-12-06 16:44:00,17.7,8.6,30.51,NNW,327,4.0,9.0,67,0.00,,,0.00,Wunderground v.1.15,2013-12-06 22:44:00,
2013-12-06 16:50:00,17.7,8.3,30.51,NNW,330,5.0,5.0,66,0.00,,,0.00,Wunderground v.1.15,2013-12-06 22:50:00,
2013-12-06 16:56:00,17.7,8.3,30.51,NNW,331,4.0,9.0,66,0.00,,,0.00,Wunderground v.1.15,2013-12-06 22:56:00,
2013-12-06 17:02:00,17.7,8.3,30.51,North,360,3.0,9.0,66,0.00,,,0.00,Wunderground v.1.15,2013-12-06 23:02:00,
2013-12-06 17:08:00,17.8,8.4,30.52,North,5,3.0,9.0,66,0.00,,,0.00,Wunderground v.1.15,2013-12-06 23:08:00,
2013-12-06 17:14:00,17.8,8.4,30.52,North,5,2.0,9.0,66,0.00,,,0.00,Wunderground v.1.15,2013-12-06 23:14:00,
2013-12-06 17:20:00,17.7,8.3,30.52,NNW,348,2.0,9.0,66,0.00,,,0.00,Wunderground v.1.15,2013-12-06 23:20:00,
2013-12-06 17:26:00,17.8,8.4,30.52,NNW,348,2.0,9.0,66,0.00,,,0.00,Wunderground v.1.15,2013-12-06 23:26:00,
2013-12-06 17:32:00,17.7,8.3,30.52,North,350,2.0,9.0,66,0.00,,,0.00,Wunderground v.1.15,2013-12-06 23:32:00,
2013-12-06 17:38:00,17.6,8.2,30.53,North,355,3.0,9.0,66,0.00,,,0.00,Wunderground v.1.15,2013-12-06 23:38:00,
2013-12-06 17:44:00,17.5,8.1,30.53,NNW,346,2.0,9.0,66,0.00,,,0.00,Wunderground v.1.15,2013-12-06 23:44:00,
2013-12-06 17:50:00,17.4,8.0,30.53,North,350,3.0,9.0,66,0.00,,,0.00,Wunderground v.1.15,2013-12-06 23:50:00,
2013-12-06 17:56:00,17.3,7.9,30.54,North,349,3.0,9.0,66,0.00,,,0.00,Wunderground v.1.15,2013-12-06 23:56:00,
2013-12-06 18:02:00,17.1,7.7,30.54,NNW,336,4.0,5.0,66,0.00,,,0.00,Wunderground v.1.15,2013-12-07 00:02:00,
2013-12-06 18:08:00,17.0,7.6,30.54,NNW,340,4.0,5.0,66,0.00,,,0.00,Wunderground v.1.15,2013-12-07 00:08:00,
2013-12-06 18:14:00,16.8,7.4,30.54,NNW,340,3.0,3.0,66,0.00,,,0.00,Wunderground v.1.15,2013-12-07 00:14:00,
2013-12-06 18:20:00,16.7,7.0,30.55,NNW,340,2.0,2.0,65,0.00,,,0.00,Wunderground v.1.15,2013-12-07 00:20:00,
2013-12-06 18:26:00,16.5,7.1,30.55,NNW,340,3.0,5.0,66,0.00,,,0.00,Wunderground v.1.15,2013-12-07 00:26:00,
2013-12-06 18:32:00,16.4,7.0,30.55,NNW,340,3.0,3.0,66,0.00,,,0.00,Wunderground v.1.15,2013-12-07 00:32:00,
2013-12-06 18:38:00,16.2,6.5,30.55,NNW,340,2.0,3.0,65,0.00,,,0.00,Wunderground v.1.15,2013-12-07 00:38:00,
2013-12-06 18:44:00,16.1,6.4,30.55,NNW,340,2.0,2.0,65,0.00,,,0.00,Wunderground v.1.15,2013-12-07 00:44:00,
2013-12-06 18:49:00,15.9,6.2,30.56,NNW,340,2.0,2.0,65,0.00,,,0.00,Wunderground v.1.15,2013-12-07 00:49:00,
2013-12-06 18:56:00,15.7,6.0,30.57,NNW,340,2.0,5.0,65,0.00,,,0.00,Wunderground v.1.15,2013-12-07 00:56:00,
2013-12-06 19:02:00,15.6,5.9,30.57,NNW,340,2.0,9.0,65,0.00,,,0.00,Wunderground v.1.15,2013-12-07 01:02:00,
2013-12-06 19:08:00,15.5,5.8,30.57,NNW,340,2.0,9.0,65,0.00,,,0.00,Wunderground v.1.15,2013-12-07 01:08:00,
2013-12-06 19:16:00,15.3,5.6,30.57,NNW,340,2.0,9.0,65,0.00,,,0.00,Wunderground v.1.15,2013-12-07 01:16:00,
2013-12-06 19:22:00,15.1,5.4,30.57,NNW,340,1.0,9.0,65,0.00,,,0.00,Wunderground v.1.15,2013-12-07 01:22:00,
2013-12-06 19:28:00,15.0,5.7,30.57,NNW,340,0.0,9.0,66,0.00,,,0.00,Wunderground v.1.15,2013-12-07 01:28:00,
2013-12-06 19:34:00,15.0,5.3,30.58,NNW,340,0.0,9.0,65,0.00,,,0.00,Wunderground v.1.15,2013-12-07 01:34:00,
2013-12-06 19:40:00,14.8,5.2,30.58,NNW,340,1.0,1.0,65,0.00,,,0.00,Wunderground v.1.15,2013-12-07 01:40:00,
2013-12-06 19:46:00,14.6,5.0,30.58,NNW,340,1.0,9.0,65,0.00,,,0.00,Wunderground v.1.15,2013-12-07 01:46:00,
2013-12-06 19:52:00,14.5,4.9,30.58,NNW,340,1.0,9.0,65,0.00,,,0.00,Wunderground v.1.15,2013-12-07 01:52:00,
2013-12-06 19:58:00,14.3,4.7,30.58,NNW,340,2.0,9.0,65,0.00,,,0.00,Wunderground v.1.15,2013-12-07 01:58:00,
2013-12-06 20:04:00,14.2,4.6,30.58,NNW,344,2.0,9.0,65,0.00,,,0.00,Wunderground v.1.15,2013-12-07 02:04:00,
2013-12-06 20:10:00,14.2,4.6,30.58,North,349,3.0,3.0,65,0.00,,,0.00,Wunderground v.1.15,2013-12-07 02:10:00,
2013-12-06 20:16:00,14.1,4.5,30.58,NNW,348,2.0,9.0,65,0.00,,,0.00,Wunderground v.1.15,2013-12-07 02:16:00,
2013-12-06 20:22:00,14.1,4.8,30.58,NNW,348,1.0,9.0,66,0.00,,,0.00,Wunderground v.1.15,2013-12-07 02:22:00,
2013-12-06 20:28:00,14.0,4.7,30.59,North,349,2.0,9.0,66,0.00,,,0.00,Wunderground v.1.15,2013-12-07 02:28:00,
2013-12-06 20:34:00,13.9,4.6,30.59,NNW,348,3.0,9.0,66,0.00,,,0.00,Wunderground v.1.15,2013-12-07 02:34:00,
2013-12-06 20:40:00,13.9,4.6,30.60,North,349,3.0,9.0,66,0.00,,,0.00,Wunderground v.1.15,2013-12-07 02:40:00,
2013-12-06 20:46:00,13.9,4.6,30.60,North,350,4.0,9.0,66,0.00,,,0.00,Wunderground v.1.15,2013-12-07 02:46:00,
2013-12-06 20:52:00,13.9,4.6,30.60,North,350,3.0,9.0,66,0.00,,,0.00,Wunderground v.1.15,2013-12-07 02:52:00,
2013-12-06 20:58:00,13.9,4.6,30.61,North,350,2.0,9.0,66,0.00,,,0.00,Wunderground v.1.15,2013-12-07 02:58:00,
2013-12-06 21:04:00,13.9,4.6,30.61,NNW,340,2.0,4.0,66,0.00,,,0.00,Wunderground v.1.15,2013-12-07 03:04:00,
2013-12-06 21:10:00,13.9,4.6,30.61,NNW,342,2.0,2.0,66,0.00,,,0.00,Wunderground v.1.15,2013-12-07 03:10:00,
2013-12-06 21:16:00,13.8,4.2,30.61,North,355,3.0,4.0,65,0.00,,,0.00,Wunderground v.1.15,2013-12-07 03:16:00,
2013-12-06 21:22:00,13.8,4.5,30.61,North,355,4.0,4.0,66,0.00,,,0.00,Wunderground v.1.15,2013-12-07 03:22:00,
2013-12-06 21:28:00,13.7,4.4,30.62,North,350,3.0,4.0,66,0.00,,,0.00,Wunderground v.1.15,2013-12-07 03:28:00,
2013-12-06 21:34:00,13.7,4.1,30.62,NNW,348,2.0,5.0,65,0.00,,,0.00,Wunderground v.1.15,2013-12-07 03:34:00,
2013-12-06 21:40:00,13.5,3.9,30.62,NNW,348,2.0,3.0,65,0.00,,,0.00,Wunderground v.1.15,2013-12-07 03:40:00,
2013-12-06 21:46:00,13.4,3.8,30.62,NNW,348,2.0,3.0,65,0.00,,,0.00,Wunderground v.1.15,2013-12-07 03:46:00,
2013-12-06 21:52:00,13.3,3.7,30.63,NNW,348,1.0,2.0,65,0.00,,,0.00,Wunderground v.1.15,2013-12-07 03:52:00,
2013-12-06 21:58:00,13.2,3.6,30.63,NNW,348,1.0,5.0,65,0.00,,,0.00,Wunderground v.1.15,2013-12-07 03:58:00,
2013-12-06 22:04:00,13.0,3.4,30.63,NNW,348,1.0,5.0,65,0.00,,,0.00,Wunderground v.1.15,2013-12-07 04:04:00,
2013-12-06 22:10:00,12.9,3.3,30.63,North,349,2.0,2.0,65,0.00,,,0.00,Wunderground v.1.15,2013-12-07 04:10:00,
2013-12-06 22:16:00,12.8,3.6,30.63,North,355,2.0,5.0,66,0.00,,,0.00,Wunderground v.1.15,2013-12-07 04:16:00,
2013-12-06 22:22:00,12.7,3.5,30.64,North,355,2.0,5.0,66,0.00,,,0.00,Wunderground v.1.15,2013-12-07 04:22:00,
2013-12-06 22:28:00,12.6,3.1,30.64,North,355,3.0,6.0,65,0.00,,,0.00,Wunderground v.1.15,2013-12-07 04:28:00,
2013-12-06 22:34:00,12.5,3.3,30.64,North,355,2.0,5.0,66,0.00,,,0.00,Wunderground v.1.15,2013-12-07 04:34:00,
2013-12-06 22:40:00,12.4,3.2,30.64,North,355,2.0,2.0,66,0.00,,,0.00,Wunderground v.1.15,2013-12-07 04:40:00,
2013-12-06 22:46:00,12.3,3.1,30.65,North,355,2.0,5.0,66,0.00,,,0.00,Wunderground v.1.15,2013-12-07 04:46:00,
2013-12-06 22:52:00,12.2,3.0,30.65,North,355,2.0,5.0,66,0.00,,,0.00,Wunderground v.1.15,2013-12-07 04:52:00,
2013-12-06 22:58:00,12.1,2.9,30.66,North,355,2.0,5.0,66,0.00,,,0.00,Wunderground v.1.15,2013-12-07 04:58:00,
2013-12-06 23:02:00,12.1,2.9,30.66,North,355,2.0,5.0,66,0.00,,,0.00,Wunderground v.1.15,2013-12-07 05:02:00,
2013-12-06 23:04:00,12.1,2.9,30.66,North,355,2.0,5.0,66,0.00,,,0.00,Wunderground v.1.15,2013-12-07 05:04:00,
2013-12-06 23:06:00,12.1,2.9,30.66,North,355,2.0,5.0,66,0.00,,,0.00,Wunderground v.1.15,2013-12-07 05:06:00,
2013-12-06 23:08:00,12.0,2.8,30.66,North,355,2.0,5.0,66,0.00,,,0.00,Wunderground v.1.15,2013-12-07 05:08:00,
2013-12-06 23:10:00,12.0,2.8,30.66,North,355,2.0,5.0,66,0.00,,,0.00,Wunderground v.1.15,2013-12-07 05:10:00,
2013-12-06 23:16:00,11.9,2.7,30.66,North,355,2.0,5.0,66,0.00,,,0.00,Wunderground v.1.15,2013-12-07 05:16:00,
2013-12-06 23:21:00,11.8,2.6,30.66,North,360,2.0,5.0,66,0.00,,,0.00,Wunderground v.1.15,2013-12-07 05:21:00,
2013-12-06 23:28:00,11.7,2.5,30.66,North,355,2.0,5.0,66,0.00,,,0.00,Wunderground v.1.15,2013-12-07 05:28:00,
2013-12-06 23:34:00,11.6,2.4,30.66,North,355,2.0,5.0,66,0.00,,,0.00,Wunderground v.1.15,2013-12-07 05:34:00,
2013-12-06 23:36:00,11.5,2.3,30.66,North,355,2.0,5.0,66,0.00,,,0.00,Wunderground v.1.15,2013-12-07 05:36:00,
2013-12-06 23:42:00,11.4,2.2,30.66,North,355,1.0,5.0,66,0.00,,,0.00,Wunderground v.1.15,2013-12-07 05:42:00,
2013-12-06 23:48:00,11.4,2.2,30.66,North,355,2.0,5.0,66,0.00,,,0.00,Wunderground v.1.15,2013-12-07 05:48:00,
2013-12-06 23:54:00,11.3,2.1,30.66,North,355,1.0,5.0,66,0.00,,,0.00,Wunderground v.1.15,2013-12-07 05:54:00,